Terminal Aerodrome Forecast
Issued by NWS

Home | Current Version | Previous Version | Text Only | Print | Product List | Glossary On
Versions: 1 2 3 4 5 6 7 8 9 10 11 12 13
000
FTUS44 KCRP 170536
TAFALI
TAF
KALI 170536Z 1706/1806 16012KT P6SM FEW025
     FM170700 16007KT P6SM BKN022
     FM171100 16010KT P6SM SCT025 BKN035
     FM171500 16015G20KT P6SM SCT035 SCT050
     FM172100 14017G25KT P6SM BKN250
     FM180300 15013KT P6SM SKC=

USA.gov is the U.S. government's official web portal to all federal, state and local government web resources and services.